METAR Data

Data at: 2137 UTC 01 Dec 2021

METAR for:KCQX (Chatham Muni, MA, US)
Text:KCQX 012052Z AUTO 23005KT 10SM CLR 07/01 A3013 RMK AO2 SLP205 T00670006 51011
Temperature: 6.7°C ( 44°F)
Dewpoint: 0.6°C ( 33°F) [RH = 65%]
Pressure (altimeter):30.13 inches Hg (1020.4 mb) [Sea level pressure: 1020.5 mb]
Winds:from the SW (230 degrees) at 6 MPH (5 knots; 2.6 m/s)
Visibility:10 or more sm (16+ km)
Ceiling:at least 12,000 feet AGL
Clouds:sky clear below 12,000 feet AGL
QC Flag:automated observation with no human augmentation